Time;durP1;ratioP1;P1;durP2;ratioP2;P2;SDS_P1;SDS_P2;PMS_P1;PMS_P2;Temp;Humidity;BMP_temperature;BMP_pressure;BME280_temperature;BME280_humidity;BME280_pressure;Samples;Min_cycle;Max_cycle;Signal;HPM_P1;HPM_P2
2021/11/23 00:00:48;;;;;;;8.45;7.15;;;2.30;99.90;;;;;;5066172;28;20568;-81
2021/11/23 00:03:19;;;;;;;7.10;6.40;;;2.30;99.90;;;;;;5065292;28;20221;-81
2021/11/23 00:05:46;;;;;;;8.57;6.53;;;2.30;99.90;;;;;;5065272;28;20208;-80
2021/11/23 00:08:13;;;;;;;5.72;5.15;;;2.30;99.90;;;;;;5065857;28;20203;-81
2021/11/23 00:10:40;;;;;;;9.43;8.38;;;2.10;99.90;;;;;;5064983;28;20206;-80
2021/11/23 00:13:08;;;;;;;8.43;7.18;;;2.20;99.90;;;;;;5065413;28;20222;-81
2021/11/23 00:15:35;;;;;;;8.15;7.35;;;2.10;99.90;;;;;;5065538;28;20215;-81
2021/11/23 00:18:03;;;;;;;9.43;8.40;;;2.20;99.90;;;;;;5065665;28;20210;-81
2021/11/23 00:20:31;;;;;;;8.07;6.93;;;2.20;99.90;;;;;;5065147;28;20211;-81
2021/11/23 00:22:58;;;;;;;8.10;6.90;;;2.10;99.90;;;;;;5065391;28;20230;-81
2021/11/23 00:25:26;;;;;;;10.65;8.13;;;2.10;99.90;;;;;;5057048;28;20571;-81
2021/11/23 00:27:52;;;;;;;8.25;7.45;;;2.10;99.90;;;;;;5054333;28;20306;-81
2021/11/23 00:30:19;;;;;;;10.75;6.78;;;2.10;99.90;;;;;;5054018;28;20210;-81
2021/11/23 00:32:48;;;;;;;9.18;8.38;;;2.00;99.90;;;;;;5054438;28;20227;-81
2021/11/23 00:35:15;;;;;;;8.77;7.90;;;2.00;99.90;;;;;;5054350;28;20232;-81
2021/11/23 00:37:46;;;;;;;9.55;8.65;;;2.00;99.90;;;;;;5054556;28;20216;-81
2021/11/23 00:40:13;;;;;;;9.48;8.50;;;2.00;99.90;;;;;;5053853;28;20202;-81
2021/11/23 00:42:40;;;;;;;8.25;7.30;;;2.00;99.90;;;;;;5053774;28;20601;-80
2021/11/23 00:45:07;;;;;;;7.85;6.93;;;2.00;99.90;;;;;;5054091;28;20198;-83
2021/11/23 00:47:34;;;;;;;7.90;7.10;;;2.00;99.90;;;;;;5054437;28;20210;-81
2021/11/23 00:50:01;;;;;;;9.50;8.20;;;1.90;99.90;;;;;;5064730;28;20217;-81
2021/11/23 00:52:28;;;;;;;9.35;8.40;;;1.90;99.90;;;;;;5064603;28;20234;-81
2021/11/23 00:54:56;;;;;;;8.85;7.95;;;1.80;99.90;;;;;;5065107;28;20221;-81
2021/11/23 00:57:23;;;;;;;9.38;8.43;;;1.90;99.90;;;;;;5064934;28;20232;-81
2021/11/23 00:59:49;;;;;;;8.25;7.45;;;1.90;99.90;;;;;;5064605;28;20582;-81
2021/11/23 01:02:16;;;;;;;7.95;7.13;;;1.90;99.90;;;;;;5064292;28;20221;-81
2021/11/23 01:04:45;;;;;;;8.75;7.65;;;1.90;99.90;;;;;;5065580;28;20209;-81
2021/11/23 01:07:11;;;;;;;9.88;7.70;;;1.90;99.90;;;;;;5065417;28;20198;-80
2021/11/23 01:09:38;;;;;;;8.93;7.35;;;1.90;99.90;;;;;;5065238;28;20215;-81
2021/11/23 01:12:07;;;;;;;8.45;7.55;;;1.90;99.90;;;;;;5064212;28;20218;-81
2021/11/23 01:14:36;;;;;;;9.38;8.48;;;1.90;99.90;;;;;;5064175;28;20212;-81
2021/11/23 01:17:04;;;;;;;11.20;7.72;;;1.80;99.90;;;;;;5064386;28;20230;-81
2021/11/23 01:19:30;;;;;;;10.07;9.10;;;1.80;99.90;;;;;;5064338;28;20206;-81
2021/11/23 01:21:57;;;;;;;9.13;8.18;;;1.70;99.90;;;;;;5063436;28;20232;-81
2021/11/23 01:24:24;;;;;;;9.82;8.88;;;1.70;99.90;;;;;;5060119;28;20692;-82
2021/11/23 01:26:51;;;;;;;8.77;7.70;;;1.70;99.90;;;;;;5058237;28;20204;-82
2021/11/23 01:29:19;;;;;;;9.27;8.30;;;1.70;99.90;;;;;;5064219;28;20213;-80
2021/11/23 01:31:46;;;;;;;10.27;9.25;;;1.60;99.90;;;;;;5067920;28;20226;-81
2021/11/23 01:34:13;;;;;;;8.68;7.82;;;1.50;99.90;;;;;;5068974;28;20206;-80
2021/11/23 01:36:39;;;;;;;9.50;7.88;;;1.60;99.90;;;;;;5067539;28;20221;-80
2021/11/23 01:39:06;;;;;;;10.18;8.43;;;1.60;99.90;;;;;;5068402;28;20214;-80
2021/11/23 01:41:33;;;;;;;9.27;8.32;;;1.50;99.90;;;;;;5065739;28;20715;-81
2021/11/23 01:44:00;;;;;;;9.05;8.15;;;1.50;99.90;;;;;;5063769;28;20214;-81
2021/11/23 01:46:28;;;;;;;8.65;7.85;;;1.40;99.90;;;;;;5064072;28;20209;-81
2021/11/23 01:48:55;;;;;;;12.32;9.48;;;1.50;99.90;;;;;;5063919;28;20292;-81
2021/11/23 01:51:22;;;;;;;10.52;9.45;;;1.50;99.90;;;;;;5063597;28;20206;-81
2021/11/23 01:53:49;;;;;;;9.82;8.63;;;1.50;99.90;;;;;;5057686;28;20559;-81
2021/11/23 01:56:16;;;;;;;8.40;7.50;;;1.40;99.90;;;;;;5058408;28;20226;-82
2021/11/23 01:58:43;;;;;;;8.88;8.18;;;1.50;99.90;;;;;;5057910;28;20210;-82
2021/11/23 02:01:10;;;;;;;8.05;7.35;;;1.50;99.90;;;;;;5057841;28;20214;-82
2021/11/23 02:03:39;;;;;;;8.00;7.05;;;1.50;99.90;;;;;;5058042;28;20206;-82
2021/11/23 02:06:07;;;;;;;11.10;7.75;;;1.50;99.90;;;;;;5058647;28;20669;-82
2021/11/23 02:08:35;;;;;;;8.68;7.93;;;1.40;99.90;;;;;;5057703;28;20201;-82
2021/11/23 02:11:02;;;;;;;8.38;7.53;;;1.20;99.90;;;;;;5057818;28;20210;-82
2021/11/23 02:13:30;;;;;;;9.23;8.32;;;1.30;99.90;;;;;;5057645;28;20201;-82
2021/11/23 02:15:57;;;;;;;13.32;8.43;;;1.30;99.90;;;;;;5058328;28;20596;-82
2021/11/23 02:18:24;;;;;;;9.63;8.63;;;1.00;99.90;;;;;;5057679;28;20200;-82
2021/11/23 02:20:53;;;;;;;7.20;5.97;;;1.00;99.90;;;;;;5057393;28;20214;-81
2021/11/23 02:23:20;;;;;;;8.00;7.30;;;1.20;99.90;;;;;;5057814;28;20225;-82
2021/11/23 02:25:47;;;;;;;9.68;7.90;;;1.20;99.90;;;;;;5057397;28;20217;-82
2021/11/23 02:28:15;;;;;;;12.15;8.82;;;1.30;99.90;;;;;;5057988;28;20234;-81
2021/11/23 02:30:45;;;;;;;8.82;8.02;;;1.20;99.90;;;;;;5058514;28;20254;-82
2021/11/23 02:33:13;;;;;;;8.60;7.78;;;1.30;99.90;;;;;;5063168;28;20256;-81
2021/11/23 02:35:40;;;;;;;10.68;8.20;;;1.30;99.90;;;;;;5072894;28;20233;-81
2021/11/23 02:38:08;;;;;;;10.23;8.45;;;1.10;99.90;;;;;;5066977;28;20205;-82
2021/11/23 02:40:34;;;;;;;10.65;8.90;;;1.00;99.90;;;;;;5041964;28;20210;-82
2021/11/23 02:43:01;;;;;;;9.43;8.23;;;1.20;99.90;;;;;;5057503;28;20226;-82
2021/11/23 02:45:29;;;;;;;10.80;8.45;;;1.20;99.90;;;;;;5061384;28;20575;-82
2021/11/23 02:47:57;;;;;;;12.27;9.60;;;1.10;99.90;;;;;;5061022;28;20694;-82
2021/11/23 02:50:26;;;;;;;9.80;8.80;;;1.00;99.90;;;;;;5061026;28;20201;-82
2021/11/23 02:52:53;;;;;;;11.18;8.60;;;1.10;99.90;;;;;;5061089;28;20235;-82
2021/11/23 02:55:24;;;;;;;10.23;9.13;;;1.10;99.90;;;;;;5061605;28;20217;-82
2021/11/23 02:57:51;;;;;;;11.48;8.80;;;0.90;99.90;;;;;;5061310;28;20214;-82
2021/11/23 03:00:20;;;;;;;11.63;9.45;;;0.80;99.90;;;;;;5061016;28;20205;-81
2021/11/23 03:02:48;;;;;;;10.27;9.27;;;0.80;99.90;;;;;;5060797;28;20237;-82
2021/11/23 03:05:17;;;;;;;10.98;9.23;;;0.70;99.90;;;;;;5060997;28;20220;-82
2021/11/23 03:07:44;;;;;;;9.73;8.30;;;0.90;99.90;;;;;;5060506;28;20213;-82
2021/11/23 03:10:11;;;;;;;9.75;8.32;;;0.90;99.90;;;;;;5060845;28;20210;-81
2021/11/23 03:12:40;;;;;;;9.43;8.48;;;0.90;99.90;;;;;;5060271;28;20818;-82
2021/11/23 03:15:09;;;;;;;9.20;8.23;;;0.80;99.90;;;;;;5060156;28;20206;-81
2021/11/23 03:17:36;;;;;;;10.80;9.73;;;0.50;99.90;;;;;;5060465;28;20221;-82
2021/11/23 03:20:04;;;;;;;10.90;9.43;;;0.40;99.90;;;;;;5060322;28;20209;-82
2021/11/23 03:22:31;;;;;;;10.45;9.45;;;0.50;99.90;;;;;;5060626;28;20267;-82
2021/11/23 03:24:58;;;;;;;11.98;10.70;;;0.40;99.90;;;;;;5060836;28;20202;-82
2021/11/23 03:27:25;;;;;;;14.98;12.63;;;0.30;99.90;;;;;;5061042;28;20692;-82
2021/11/23 03:29:53;;;;;;;10.70;9.60;;;0.40;99.90;;;;;;5060140;28;20202;-82
2021/11/23 03:32:20;;;;;;;11.73;9.82;;;0.30;99.90;;;;;;5060144;28;20225;-82
2021/11/23 03:34:50;;;;;;;10.65;8.82;;;0.30;99.90;;;;;;5060055;28;20213;-81
2021/11/23 03:37:19;;;;;;;13.20;10.38;;;0.20;99.90;;;;;;5059717;28;20871;-82
2021/11/23 03:39:46;;;;;;;10.50;9.45;;;0.30;99.90;;;;;;5060696;28;20205;-82
2021/11/23 03:42:13;;;;;;;12.27;10.15;;;0.40;99.90;;;;;;5060343;28;20370;-82
2021/11/23 03:44:40;;;;;;;9.27;8.45;;;0.50;99.90;;;;;;5059142;28;20685;-82
2021/11/23 03:47:09;;;;;;;14.05;11.13;;;0.40;99.90;;;;;;5060296;28;20213;-82
2021/11/23 03:49:37;;;;;;;12.10;10.82;;;0.50;99.90;;;;;;5064903;28;20261;-81
2021/11/23 03:52:04;;;;;;;14.70;10.68;;;0.40;99.90;;;;;;5099110;22;20251;-84
2021/11/23 03:54:31;;;;;;;13.40;10.90;;;0.50;99.90;;;;;;5099315;28;20212;-83
2021/11/23 03:56:58;;;;;;;14.10;9.82;;;0.60;99.90;;;;;;5100639;28;20228;-84
2021/11/23 03:59:25;;;;;;;12.13;10.65;;;0.50;99.90;;;;;;5099139;28;20215;-84
2021/11/23 04:01:52;;;;;;;15.70;10.43;;;0.30;99.90;;;;;;5079454;28;20689;-83
2021/11/23 04:04:20;;;;;;;11.23;9.50;;;0.10;99.90;;;;;;5079159;28;20205;-83
2021/11/23 04:06:47;;;;;;;13.88;11.00;;;0.20;99.90;;;;;;5095781;28;20201;-83
2021/11/23 04:09:13;;;;;;;14.25;10.18;;;0.10;99.90;;;;;;5098646;28;20204;-84
2021/11/23 04:11:40;;;;;;;17.75;11.95;;;0.20;99.90;;;;;;5082253;28;20688;-84
2021/11/23 04:14:07;;;;;;;14.57;11.38;;;0.20;99.90;;;;;;5079550;28;20208;-84
2021/11/23 04:16:34;;;;;;;13.10;10.45;;;0.40;99.90;;;;;;5096285;28;20220;-83
2021/11/23 04:19:01;;;;;;;11.40;8.82;;;0.40;99.90;;;;;;5099984;28;20205;-84
2021/11/23 04:21:29;;;;;;;11.23;8.95;;;0.50;99.90;;;;;;5084017;28;20204;-84
2021/11/23 04:23:56;;;;;;;13.27;10.05;;;0.40;99.90;;;;;;5079140;28;20547;-84
2021/11/23 04:26:24;;;;;;;12.07;10.27;;;0.40;99.90;;;;;;5094580;28;20192;-84
2021/11/23 04:28:51;;;;;;;12.60;10.48;;;0.30;99.90;;;;;;5100201;28;20267;-84
2021/11/23 04:31:17;;;;;;;10.43;8.43;;;0.20;99.90;;;;;;5088501;28;20200;-84
2021/11/23 04:33:44;;;;;;;14.98;10.77;;;0.10;99.90;;;;;;5102697;28;20753;-84
2021/11/23 04:36:11;;;;;;;15.75;12.13;;;0.00;99.90;;;;;;5101081;28;20314;-83
2021/11/23 04:38:39;;;;;;;11.07;9.98;;;-0.10;99.90;;;;;;5093183;28;20217;-84
2021/11/23 04:41:06;;;;;;;11.60;10.32;;;-0.10;99.90;;;;;;5079624;28;20291;-84
2021/11/23 04:43:32;;;;;;;14.20;11.68;;;-0.10;99.90;;;;;;5098298;28;20220;-83
2021/11/23 04:45:59;;;;;;;12.95;11.02;;;-0.20;99.90;;;;;;5098956;28;20200;-84
2021/11/23 04:48:26;;;;;;;15.32;10.75;;;-0.20;99.90;;;;;;5076773;28;20213;-83
2021/11/23 04:50:55;;;;;;;13.90;11.40;;;-0.20;99.90;;;;;;5077997;28;20578;-83
2021/11/23 04:53:22;;;;;;;14.48;10.02;;;-0.20;99.90;;;;;;5095961;28;20255;-83
2021/11/23 04:55:50;;;;;;;13.93;10.95;;;-0.20;99.90;;;;;;5078718;28;20227;-83
2021/11/23 04:58:17;;;;;;;13.82;12.20;;;-0.10;99.90;;;;;;5095658;28;20207;-84
2021/11/23 05:00:43;;;;;;;11.90;10.48;;;0.00;99.90;;;;;;5099132;28;20204;-83
2021/11/23 05:03:10;;;;;;;10.95;9.77;;;0.10;99.90;;;;;;5083353;28;20216;-84
2021/11/23 05:05:37;;;;;;;12.80;11.07;;;0.10;99.90;;;;;;5079986;28;20207;-83
2021/11/23 05:08:04;;;;;;;11.20;8.90;;;0.20;99.90;;;;;;5099164;28;20200;-84
2021/11/23 05:10:31;;;;;;;11.63;10.52;;;0.30;99.90;;;;;;5082565;28;20212;-83
2021/11/23 05:12:59;;;;;;;15.23;11.93;;;0.30;99.90;;;;;;5078987;28;20224;-84
2021/11/23 05:15:26;;;;;;;11.52;10.52;;;0.10;99.90;;;;;;5093921;28;20210;-84
2021/11/23 05:17:53;;;;;;;13.70;12.10;;;-0.10;99.90;;;;;;5096308;28;20604;-84
2021/11/23 05:20:20;;;;;;;12.63;11.43;;;-0.20;99.90;;;;;;5078351;28;20216;-83
2021/11/23 05:22:47;;;;;;;13.63;11.18;;;-0.30;99.90;;;;;;5078954;28;20235;-84
2021/11/23 05:25:14;;;;;;;13.98;12.48;;;-0.40;99.90;;;;;;5099653;28;20228;-83
2021/11/23 05:27:41;;;;;;;21.95;12.98;;;-0.40;99.90;;;;;;5097721;28;20669;-82
2021/11/23 05:30:12;;;;;;;17.58;12.05;;;-0.40;99.90;;;;;;5079818;28;20270;-82
2021/11/23 05:32:39;;;;;;;17.63;11.55;;;-0.30;99.90;;;;;;5097874;28;20235;-82
2021/11/23 05:35:06;;;;;;;13.75;11.85;;;-0.30;99.90;;;;;;5112923;28;20184;-82
2021/11/23 05:37:33;;;;;;;18.77;12.40;;;-0.40;99.90;;;;;;5117413;28;20213;-81
2021/11/23 05:40:00;;;;;;;15.98;13.48;;;-0.50;99.90;;;;;;5098588;28;20209;-80
2021/11/23 05:42:27;;;;;;;15.85;12.82;;;-0.50;99.90;;;;;;5099226;28;20212;-84
2021/11/23 05:44:54;;;;;;;14.32;12.70;;;-0.50;99.90;;;;;;5099269;28;20204;-85
2021/11/23 05:47:22;;;;;;;22.42;13.57;;;-0.50;99.90;;;;;;5092056;28;20204;-84
2021/11/23 05:49:49;;;;;;;18.77;14.13;;;-0.50;99.90;;;;;;5079545;28;20209;-85
2021/11/23 05:52:17;;;;;;;14.13;11.43;;;-0.50;99.90;;;;;;5080161;28;20236;-84
2021/11/23 05:54:45;;;;;;;21.00;13.32;;;-0.60;99.90;;;;;;5089630;28;20201;-84
2021/11/23 05:57:12;;;;;;;19.75;12.88;;;-0.50;99.90;;;;;;5079291;28;20248;-84
2021/11/23 05:59:38;;;;;;;19.73;13.32;;;-0.50;99.90;;;;;;5082299;28;20223;-84
2021/11/23 06:02:05;;;;;;;15.85;13.13;;;-0.50;99.90;;;;;;5098410;28;20239;-85
2021/11/23 06:04:33;;;;;;;16.95;13.60;;;-0.40;99.90;;;;;;5085758;28;20197;-85
2021/11/23 06:07:00;;;;;;;14.27;12.77;;;-0.40;99.90;;;;;;5077895;28;20208;-84
2021/11/23 06:09:27;;;;;;;15.60;12.50;;;-0.40;99.90;;;;;;5091108;28;20204;-84
2021/11/23 06:11:54;;;;;;;15.93;13.52;;;-0.40;99.90;;;;;;5101930;28;20220;-85
2021/11/23 06:14:21;;;;;;;20.25;14.85;;;-0.30;99.90;;;;;;5087193;28;20212;-84
2021/11/23 06:16:47;;;;;;;17.15;12.48;;;-0.30;99.90;;;;;;5088787;28;20260;-85
2021/11/23 06:19:15;;;;;;;19.08;15.32;;;-0.30;99.90;;;;;;5082959;28;20243;-84
2021/11/23 06:21:43;;;;;;;18.80;13.13;;;-0.40;99.90;;;;;;5094277;28;20204;-84
2021/11/23 06:24:11;;;;;;;16.50;12.70;;;-0.40;99.90;;;;;;5099157;28;20207;-84
2021/11/23 06:26:38;;;;;;;19.63;16.85;;;-0.40;99.90;;;;;;5080574;28;20208;-83
2021/11/23 06:29:05;;;;;;;16.73;12.98;;;-0.40;99.90;;;;;;5099651;28;20204;-84
2021/11/23 06:31:33;;;;;;;17.52;12.63;;;-0.50;99.90;;;;;;5101341;28;20208;-84
2021/11/23 06:34:01;;;;;;;16.38;14.45;;;-0.50;99.90;;;;;;5085233;28;20209;-84
2021/11/23 06:36:28;;;;;;;21.60;14.23;;;-0.50;99.90;;;;;;5081622;28;20212;-84
2021/11/23 06:38:56;;;;;;;16.92;14.05;;;-0.50;99.90;;;;;;5082145;28;20193;-84
2021/11/23 06:41:23;;;;;;;17.92;14.57;;;-0.50;99.90;;;;;;5082141;28;20215;-85
2021/11/23 06:43:49;;;;;;;19.65;13.40;;;-0.50;99.90;;;;;;5097605;28;20196;-84
2021/11/23 06:46:16;;;;;;;21.80;14.10;;;-0.50;99.90;;;;;;5095889;28;20207;-84
2021/11/23 06:48:43;;;;;;;15.77;13.13;;;-0.50;99.90;;;;;;5081793;28;20575;-85
2021/11/23 06:51:10;;;;;;;19.35;12.68;;;-0.50;99.90;;;;;;5095604;28;20207;-83
2021/11/23 06:53:37;;;;;;;18.95;13.40;;;-0.50;99.90;;;;;;5086624;28;20229;-84
2021/11/23 06:56:06;;;;;;;22.83;14.48;;;-0.50;99.90;;;;;;5098777;28;20201;-85
2021/11/23 06:58:33;;;;;;;18.88;13.60;;;-0.40;99.90;;;;;;5109608;28;20224;-83
2021/11/23 07:01:00;;;;;;;15.13;13.43;;;-0.40;99.90;;;;;;5112660;28;20200;-83
2021/11/23 07:03:26;;;;;;;28.30;15.27;;;-0.40;99.90;;;;;;5111221;28;20314;-83
2021/11/23 07:05:53;;;;;;;20.60;14.18;;;-0.30;99.90;;;;;;5090166;28;20209;-82
2021/11/23 07:08:20;;;;;;;19.92;14.23;;;-0.40;99.90;;;;;;5094101;28;20203;-82
2021/11/23 07:10:47;;;;;;;21.23;16.35;;;-0.40;99.90;;;;;;5098916;28;20219;-81
2021/11/23 07:13:15;;;;;;;18.92;14.98;;;-0.40;99.90;;;;;;5085043;28;20225;-82
2021/11/23 07:15:41;;;;;;;17.83;14.88;;;-0.30;99.90;;;;;;5098656;28;20204;-82
2021/11/23 07:18:08;;;;;;;17.15;15.25;;;-0.30;99.90;;;;;;5086612;28;20927;-83
2021/11/23 07:20:35;;;;;;;15.85;12.70;;;-0.30;99.90;;;;;;5080714;28;20208;-83
2021/11/23 07:23:02;;;;;;;20.83;15.65;;;-0.10;99.90;;;;;;5079185;28;20225;-83
2021/11/23 07:25:29;;;;;;;15.27;12.13;;;-0.10;99.90;;;;;;5083064;28;20205;-81
2021/11/23 07:27:56;;;;;;;22.73;15.73;;;0.00;99.90;;;;;;5089672;28;20199;-82
2021/11/23 07:30:24;;;;;;;21.33;13.77;;;0.10;99.90;;;;;;5087061;28;20201;-82
2021/11/23 07:32:51;;;;;;;19.50;12.70;;;0.10;99.90;;;;;;5088240;28;20224;-83
2021/11/23 07:35:19;;;;;;;20.02;14.80;;;0.20;99.90;;;;;;5088819;28;20205;-81
2021/11/23 07:37:47;;;;;;;17.60;14.48;;;0.10;99.90;;;;;;5089341;28;20216;-82
2021/11/23 07:40:14;;;;;;;17.85;15.45;;;0.10;99.90;;;;;;5089781;28;20665;-83
2021/11/23 07:42:41;;;;;;;20.40;14.45;;;0.10;99.90;;;;;;5087529;28;20223;-83
2021/11/23 07:45:09;;;;;;;17.73;13.55;;;0.10;99.90;;;;;;5089318;28;20202;-83
2021/11/23 07:47:37;;;;;;;19.38;13.13;;;0.10;99.90;;;;;;5088011;28;20197;-82
2021/11/23 07:50:05;;;;;;;22.50;14.85;;;0.30;99.90;;;;;;5087024;28;20266;-84
2021/11/23 07:52:32;;;;;;;18.23;15.18;;;0.30;99.90;;;;;;5084846;28;20243;-84
2021/11/23 07:54:59;;;;;;;17.08;14.45;;;0.30;99.90;;;;;;5079784;28;20205;-84
2021/11/23 07:57:26;;;;;;;19.02;15.10;;;0.40;99.90;;;;;;5079477;28;20224;-81
2021/11/23 07:59:53;;;;;;;14.45;12.90;;;0.50;99.90;;;;;;5082985;28;20722;-84
2021/11/23 08:02:20;;;;;;;23.88;12.75;;;0.70;99.90;;;;;;5080318;28;20216;-84
2021/11/23 08:04:48;;;;;;;16.15;13.13;;;0.70;99.90;;;;;;5076451;28;20201;-85
2021/11/23 08:07:14;;;;;;;17.58;13.52;;;0.80;99.90;;;;;;5094531;28;20201;-85
2021/11/23 08:09:43;;;;;;;16.00;11.80;;;0.90;99.90;;;;;;5084226;28;20197;-84
2021/11/23 08:12:10;;;;;;;14.52;12.13;;;0.90;99.90;;;;;;5077149;28;20309;-85
2021/11/23 08:14:37;;;;;;;12.50;10.65;;;0.90;99.90;;;;;;5091200;28;20587;-85
2021/11/23 08:17:04;;;;;;;16.13;12.27;;;1.00;99.90;;;;;;5105970;28;20202;-85
2021/11/23 08:19:30;;;;;;;14.68;12.75;;;1.00;99.90;;;;;;5099465;28;20214;-85
2021/11/23 08:21:59;;;;;;;12.60;10.00;;;1.00;99.90;;;;;;5094992;28;20255;-85
2021/11/23 08:24:26;;;;;;;14.55;12.13;;;1.10;99.90;;;;;;5076427;28;20238;-85
2021/11/23 08:26:56;;;;;;;17.83;13.70;;;1.10;99.90;;;;;;5081452;28;20201;-83
2021/11/23 08:29:23;;;;;;;15.00;13.00;;;1.20;99.90;;;;;;5091621;28;20215;-84
2021/11/23 08:31:50;;;;;;;14.80;12.75;;;1.20;99.90;;;;;;5079569;28;20224;-84
2021/11/23 08:34:19;;;;;;;16.52;12.13;;;1.20;99.90;;;;;;5094825;28;20224;-85
2021/11/23 08:36:49;;;;;;;14.27;11.85;;;1.20;99.90;;;;;;5078386;28;20267;-84
2021/11/23 08:39:17;;;;;;;13.88;11.35;;;1.30;99.90;;;;;;5087011;28;20588;-84
2021/11/23 08:41:44;;;;;;;17.10;11.82;;;1.40;99.90;;;;;;5086010;28;20217;-82
2021/11/23 08:44:11;;;;;;;13.75;11.95;;;1.30;99.90;;;;;;5095385;28;20286;-84
2021/11/23 08:46:38;;;;;;;15.52;13.00;;;1.40;99.90;;;;;;5091424;28;20643;-85
2021/11/23 08:49:05;;;;;;;13.15;11.48;;;1.40;99.90;;;;;;5080225;28;20201;-83
2021/11/23 08:51:35;;;;;;;13.00;11.63;;;1.40;99.90;;;;;;5096196;28;20205;-85
2021/11/23 08:54:02;;;;;;;12.40;11.10;;;1.60;99.90;;;;;;5081143;28;20204;-87
2021/11/23 08:56:35;;;;;;;15.52;12.13;;;1.70;99.90;;;;;;5081980;28;20230;-82
2021/11/23 08:59:06;;;;;;;13.05;11.60;;;1.70;99.90;;;;;;5086353;28;20704;-84
2021/11/23 09:01:33;;;;;;;13.00;10.82;;;1.80;99.90;;;;;;5090719;28;20253;-85
2021/11/23 09:04:03;;;;;;;12.93;11.40;;;1.70;99.90;;;;;;5085444;28;20205;-81
2021/11/23 09:06:30;;;;;;;15.43;13.20;;;1.80;99.90;;;;;;5085369;28;20197;-82
2021/11/23 09:08:59;;;;;;;15.93;11.20;;;1.90;99.90;;;;;;5092410;28;20203;-83
2021/11/23 09:11:26;;;;;;;14.32;12.40;;;2.10;99.90;;;;;;5076287;28;20293;-81
2021/11/23 09:13:55;;;;;;;12.90;11.50;;;2.30;99.90;;;;;;5075021;28;20209;-85
2021/11/23 09:16:22;;;;;;;13.45;10.90;;;2.40;99.90;;;;;;5086336;28;20235;-83
2021/11/23 09:18:49;;;;;;;11.60;10.38;;;2.50;99.90;;;;;;5101075;28;20241;-85
2021/11/23 09:21:17;;;;;;;13.20;9.60;;;2.60;99.90;;;;;;5091121;28;20578;-82
2021/11/23 09:23:44;;;;;;;10.85;9.73;;;2.70;99.90;;;;;;5076990;28;20233;-83
2021/11/23 09:26:11;;;;;;;10.68;8.52;;;2.70;99.90;;;;;;5083081;28;20198;-84
2021/11/23 09:28:39;;;;;;;11.18;10.02;;;2.70;99.90;;;;;;5086391;28;20216;-83
2021/11/23 09:31:07;;;;;;;10.80;8.07;;;2.80;99.90;;;;;;5093574;28;20294;-84
2021/11/23 09:33:34;;;;;;;9.70;7.85;;;2.90;99.90;;;;;;5097914;28;20228;-81
2021/11/23 09:36:01;;;;;;;9.88;9.02;;;3.00;99.90;;;;;;5078207;28;20674;-83
2021/11/23 09:38:28;;;;;;;9.40;8.50;;;3.10;99.90;;;;;;5078483;28;20338;-82
2021/11/23 09:40:55;;;;;;;8.57;7.68;;;3.30;99.90;;;;;;5100842;28;20238;-81
2021/11/23 09:43:22;;;;;;;9.68;8.85;;;3.40;99.90;;;;;;5077028;28;20300;-83
2021/11/23 09:45:49;;;;;;;9.27;8.48;;;3.50;99.90;;;;;;5083392;28;20217;-82
2021/11/23 09:48:18;;;;;;;10.10;8.82;;;3.50;99.90;;;;;;5093535;28;20192;-85
2021/11/23 09:50:44;;;;;;;8.68;7.93;;;3.60;99.90;;;;;;5100415;28;20236;-84
2021/11/23 09:53:27;;;;;;;9.43;8.63;;;3.40;99.90;;;;;;5121502;22;20240;-83
2021/11/23 09:56:08;;;;;;;8.77;7.82;;;3.50;99.90;;;;;;5093959;28;20232;-83
2021/11/23 09:58:57;;;;;;;9.20;8.30;;;3.50;99.90;;;;;;5105107;28;20208;-83
2021/11/23 10:04:27;;;;;;;8.25;6.93;;;3.90;99.90;;;;;;5002243;28;20549;-82
2021/11/23 10:07:11;;;;;;;;;;;;;;;;;;;;;
2021/11/23 10:09:40;;;;;;;8.27;7.45;;;4.20;99.90;;;;;;5082774;28;20261;-83
2021/11/23 10:12:16;;;;;;;9.43;8.52;;;4.10;99.90;;;;;;5083639;28;20467;-82
2021/11/23 10:15:08;;;;;;;8.25;7.50;;;4.20;99.90;;;;;;5083117;28;20204;-82
2021/11/23 10:17:35;;;;;;;7.47;6.75;;;4.40;99.90;;;;;;5082516;28;20214;-82
2021/11/23 10:20:04;;;;;;;8.35;7.55;;;4.50;99.90;;;;;;5084722;28;20208;-82
2021/11/23 10:22:33;;;;;;;8.30;7.40;;;4.70;99.90;;;;;;5084240;28;20228;-83
2021/11/23 10:25:03;;;;;;;7.43;6.50;;;4.90;99.90;;;;;;5083999;28;20681;-83
2021/11/23 10:27:30;;;;;;;8.65;7.85;;;5.10;99.90;;;;;;5083118;28;20193;-83
2021/11/23 10:29:58;;;;;;;7.82;7.13;;;5.30;99.90;;;;;;5084872;28;20201;-83
2021/11/23 10:32:25;;;;;;;10.95;8.00;;;5.50;99.90;;;;;;5084817;28;20224;-83
2021/11/23 10:34:52;;;;;;;7.18;6.57;;;5.70;99.90;;;;;;5085598;28;20244;-83
2021/11/23 10:37:31;;;;;;;6.07;5.45;;;6.10;99.90;;;;;;5086627;28;20205;-83
2021/11/23 10:40:14;;;;;;;7.78;6.07;;;6.60;99.90;;;;;;5085422;28;20296;-84
2021/11/23 10:42:42;;;;;;;6.00;5.47;;;7.30;99.90;;;;;;5083636;28;20220;-84
2021/11/23 10:45:11;;;;;;;6.20;5.70;;;7.80;98.10;;;;;;5090393;28;20197;-83
2021/11/23 10:47:40;;;;;;;6.13;5.63;;;8.50;97.30;;;;;;5080086;28;20206;-82
2021/11/23 10:50:10;;;;;;;5.65;5.20;;;9.40;98.10;;;;;;5083048;28;20203;-84
2021/11/23 10:52:40;;;;;;;7.20;6.65;;;10.20;94.80;;;;;;5084431;28;20241;-83
2021/11/23 10:55:24;;;;;;;7.30;5.93;;;10.60;92.20;;;;;;5085670;28;20245;-84
2021/11/23 10:57:53;;;;;;;6.47;5.72;;;11.30;92.80;;;;;;5084256;28;20526;-83
2021/11/23 11:00:21;;;;;;;5.40;5.00;;;11.90;91.70;;;;;;5084294;28;20577;-84
2021/11/23 11:02:48;;;;;;;4.77;4.40;;;12.50;88.20;;;;;;5081510;28;20474;-82
2021/11/23 11:05:16;;;;;;;5.40;4.90;;;13.20;88.80;;;;;;5080492;28;20450;-82
2021/11/23 11:07:46;;;;;;;5.77;5.27;;;13.80;83.00;;;;;;5081078;28;20452;-81
2021/11/23 11:10:14;;;;;;;5.63;5.23;;;14.60;84.40;;;;;;5082419;28;20448;-84
2021/11/23 11:12:41;;;;;;;5.07;4.77;;;15.20;78.30;;;;;;5085356;28;20479;-83
2021/11/23 11:15:11;;;;;;;5.67;5.13;;;15.90;74.10;;;;;;5084718;28;20937;-84
2021/11/23 11:17:39;;;;;;;5.33;4.97;;;16.10;69.80;;;;;;5083371;28;20451;-84
2021/11/23 11:20:09;;;;;;;5.60;5.13;;;16.40;68.30;;;;;;5081566;28;20483;-83
2021/11/23 11:22:50;;;;;;;4.87;4.57;;;17.00;69.90;;;;;;5084417;28;20490;-83
2021/11/23 11:25:23;;;;;;;4.90;4.57;;;17.20;64.80;;;;;;5084718;28;20456;-84
2021/11/23 11:27:51;;;;;;;4.80;4.50;;;17.50;62.00;;;;;;5085620;28;20929;-83
2021/11/23 11:30:29;;;;;;;5.77;5.37;;;17.70;61.70;;;;;;5084465;28;20531;-84
2021/11/23 11:33:11;;;;;;;5.53;5.13;;;18.20;63.30;;;;;;5084560;28;20837;-84
2021/11/23 11:35:42;;;;;;;4.23;3.93;;;18.50;60.90;;;;;;5084202;28;20820;-83
2021/11/23 11:38:39;;;;;;;4.23;3.93;;;18.80;58.50;;;;;;5085606;28;20451;-83
2021/11/23 11:41:40;;;;;;;4.97;4.57;;;19.30;58.30;;;;;;5084799;28;20478;-84
2021/11/23 11:44:09;;;;;;;5.40;5.00;;;19.90;57.10;;;;;;5080288;28;20532;-83
2021/11/23 11:46:36;;;;;;;5.57;5.07;;;20.20;55.10;;;;;;5079451;28;20461;-82
2021/11/23 11:49:04;;;;;;;5.37;4.97;;;20.10;54.00;;;;;;5078698;28;21121;-83
2021/11/23 11:51:34;;;;;;;6.37;5.83;;;20.20;54.10;;;;;;5080358;28;20451;-83
2021/11/23 11:54:03;;;;;;;7.10;5.67;;;19.50;51.80;;;;;;5083059;28;20882;-84
2021/11/23 11:56:49;;;;;;;6.03;5.50;;;18.60;54.40;;;;;;5083994;28;20848;-84
2021/11/23 11:59:30;;;;;;;5.67;5.30;;;18.30;54.00;;;;;;5081870;28;20491;-84
2021/11/23 12:02:01;;;;;;;5.20;4.80;;;18.30;54.70;;;;;;5082356;28;20465;-81
2021/11/23 12:04:32;;;;;;;5.07;4.67;;;18.60;55.30;;;;;;5080341;28;20481;-82
2021/11/23 12:07:13;;;;;;;6.57;6.07;;;18.80;54.90;;;;;;5081194;28;20485;-83
2021/11/23 12:09:45;;;;;;;5.40;5.00;;;18.90;53.60;;;;;;5081590;28;20546;-82
2021/11/23 12:12:36;;;;;;;5.60;5.20;;;19.20;53.10;;;;;;5080462;28;20486;-82
2021/11/23 12:15:23;;;;;;;5.70;5.20;;;18.60;51.40;;;;;;5081637;28;20458;-83
2021/11/23 12:18:07;;;;;;;5.73;5.23;;;18.50;53.30;;;;;;5080583;28;20468;-83
2021/11/23 12:20:46;;;;;;;4.93;4.63;;;19.10;53.30;;;;;;5084238;28;20439;-84
2021/11/23 12:23:16;;;;;;;5.90;5.37;;;19.70;51.10;;;;;;5081470;28;20481;-83
2021/11/23 12:25:58;;;;;;;5.90;5.40;;;20.20;51.50;;;;;;5079415;28;20439;-83
2021/11/23 12:28:29;;;;;;;5.60;5.20;;;19.70;50.60;;;;;;5081803;28;20446;-83
2021/11/23 12:30:57;;;;;;;6.03;5.53;;;20.00;50.80;;;;;;5081740;28;20443;-82
2021/11/23 12:33:25;;;;;;;5.77;5.27;;;20.10;51.30;;;;;;5077676;28;20474;-82
2021/11/23 12:35:54;;;;;;;5.90;5.40;;;19.70;50.20;;;;;;5077846;28;20488;-83
2021/11/23 12:38:32;;;;;;;6.83;5.50;;;18.90;49.10;;;;;;5080456;28;20497;-84
2021/11/23 12:41:13;;;;;;;5.90;5.50;;;17.90;49.90;;;;;;5080489;28;20446;-83
2021/11/23 12:46:32;;;;;;;7.13;6.43;;;17.20;52.80;;;;;;5113355;22;20553;-84
2021/11/23 12:48:58;;;;;;;5.00;4.53;;;17.10;51.90;;;;;;5079224;28;20835;-82
2021/11/23 12:51:29;;;;;;;5.20;4.70;;;17.40;52.60;;;;;;5076139;28;20454;-82
2021/11/23 12:53:59;;;;;;;5.77;5.30;;;17.20;51.80;;;;;;5058847;28;20556;-82
2021/11/23 12:56:45;;;;;;;3.80;3.60;;;17.60;52.80;;;;;;5056848;28;20507;-81
2021/11/23 12:59:35;;;;;;;4.30;3.90;;;17.50;50.50;;;;;;5056479;28;20508;-82